Dillon, CO

4:12 AM MDT on August 29, 2015 (GMT -0600)
Snowberry | | Change Station
CLOSE
Current Station
Personal Weather Station
Location: Dillon, CO
Elevation: 9190 ft
Nearby Weather Stations

Elev 9190 ft 39.59 °N, 106.00 °W | Updated 2 minutes ago

Clear
Clear
40.3 °F
Feels Like 40 °F
N
0.0
Wind Variable Wind from NNW
Gusts 3.0 mph

Today
High -- | Low -- °F
--% Chance of Precip.
Yesterday
High -- | Low -- °F
Precip. -- in
6:29 AM 7:39 PM
Full, 100% visible
Pressure 30.14 in
Visibility 10.0 miles
Clouds Clear
Windchill 40 °F
Dew Point 35 °F
Humidity 81%
Rainfall 0.00 in
Snow Depth Not available.
UV 0 out of 12
Pollen 10.10 out of 12
Air Quality Not available.
Flu Activity Not available.
METAR KLXV 290953Z AUTO 06005KT 10SM CLR 04/02 A3058 RMK AO2 SLP204 T00390022
Pressure 30.14 in
Visibility 10.0 miles
Clouds Clear
Windchill 40 °F
Dew Point 35 °F
Humidity 81%
Rainfall 0.00 in
Snow Depth Not available.
UV 0 out of 12
Pollen 10.10 out of 12
Air Quality Not available.
Flu Activity Not available.
METAR KLXV 290953Z AUTO 06005KT 10SM CLR 04/02 A3058 RMK AO2 SLP204 T00390022

10-Day Weather Forecast

×

Almanac

Astronomy

Aug. 29, 2015 Rise Set
Actual Time
Civil Twilight
Nautical Twilight
Astronomical Twilight
Moon
Length of Visible Light
Length of Day
Tomorrow will be .
, % of the Moon is Illuminated

Today's Extremes

State Highs State Lows

Community

WunderPhotos

Upload Photos

1,850,633 photos uploaded!

WunderBlogs® & News

Nearby

Air Quality

  Air Quality AQ Index Pollutant
Not available.

Snow Depth

Station Depth Elevation

Earthquake Activity

City Distance Mag. Time & Date
Minimum magnitude displayed is 2.5.

Coastal Water Temperatures

Place Temperature

Stations

Nearby Weather Stations

Station Location Temp. Windchill Dew Point Humidity Wind Precip. Elev Updated Type